createdAt,value
2022-12-09T01:27:39.601Z,20.90
2022-12-09T01:30:10.803Z,20.90
2022-12-09T02:20:36.641Z,21.00
2022-12-09T02:23:12.815Z,21.00
2022-12-09T02:32:42.270Z,21.00
2022-12-09T02:35:45.884Z,21.10
2022-12-09T02:44:31.955Z,21.10
2022-12-09T02:50:13.108Z,21.20
2022-12-09T02:56:24.557Z,21.30
2022-12-09T03:02:13.501Z,21.40
2022-12-09T03:09:08.703Z,21.40
2022-12-09T03:25:35.199Z,21.50
2022-12-09T03:37:43.690Z,21.60
2022-12-09T03:40:39.429Z,21.70
2022-12-09T03:43:15.399Z,21.70
2022-12-09T03:58:38.138Z,21.70
2022-12-09T04:02:01.683Z,21.80
2022-12-09T04:12:10.470Z,21.90
2022-12-09T04:15:10.995Z,21.90
2022-12-09T04:37:53.418Z,22.00
2022-12-09T04:40:49.523Z,22.00
2022-12-09T05:47:43.252Z,21.90
2022-12-09T05:50:25.944Z,21.90
2022-12-09T06:40:39.667Z,21.80
2022-12-09T06:49:10.386Z,21.80
2022-12-09T06:55:15.487Z,21.80
2022-12-09T06:57:45.239Z,21.80
2022-12-09T07:00:15.351Z,21.80
2022-12-09T07:05:55.774Z,21.80
2022-12-09T07:09:09.660Z,21.80
2022-12-09T07:11:33.575Z,21.80
2022-12-09T07:14:02.884Z,21.80
2022-12-09T07:16:32.173Z,21.80
2022-12-09T07:19:02.645Z,21.80
2022-12-09T07:21:32.630Z,21.80
2022-12-09T07:27:18.634Z,21.80
2022-12-09T07:29:48.709Z,21.80
2022-12-09T07:32:18.505Z,21.80
2022-12-09T07:34:48.078Z,21.80
2022-12-09T07:40:27.418Z,21.80
2022-12-09T07:42:59.832Z,21.90
2022-12-09T07:45:29.704Z,21.90
2022-12-09T07:47:59.887Z,21.80
2022-12-09T07:50:29.801Z,21.90
2022-12-09T07:53:00.179Z,21.90
2022-12-09T07:58:21.572Z,21.80
2022-12-09T08:00:51.405Z,21.80
2022-12-09T08:03:20.760Z,21.90
2022-12-09T08:05:51.739Z,21.90
2022-12-09T08:08:21.192Z,21.90
2022-12-09T08:17:10.469Z,21.90
2022-12-09T08:19:40.850Z,21.90
2022-12-09T08:22:13.100Z,22.00
2022-12-09T08:24:42.586Z,21.90
2022-12-09T08:30:18.670Z,22.00
2022-12-09T08:32:49.321Z,22.00
2022-12-09T08:35:19.729Z,21.90
2022-12-09T08:37:49.205Z,22.00
2022-12-09T08:40:18.659Z,22.00
2022-12-09T08:42:47.790Z,22.00
2022-12-09T08:45:45.344Z,22.00
2022-12-09T09:04:52.822Z,22.00
2022-12-09T09:07:22.789Z,22.00
2022-12-09T09:09:52.298Z,22.00
2022-12-09T09:12:22.106Z,22.00
2022-12-09T09:14:53.612Z,22.00
2022-12-09T09:17:23.732Z,22.00
2022-12-09T09:19:53.338Z,21.90
2022-12-09T09:22:22.923Z,22.00
2022-12-09T09:24:54.962Z,22.00
2022-12-09T09:27:24.345Z,22.00
2022-12-09T09:29:53.726Z,22.00
2022-12-09T09:32:23.128Z,22.00
2022-12-09T09:34:53.802Z,22.00
2022-12-09T09:37:23.851Z,22.00
2022-12-09T09:39:52.767Z,22.00
2022-12-09T09:42:25.925Z,22.00
2022-12-09T09:44:55.084Z,22.00
2022-12-09T09:47:46.253Z,22.00
2022-12-09T09:50:25.185Z,22.00
2022-12-09T09:52:55.284Z,22.00
2022-12-09T09:56:03.582Z,22.00
2022-12-09T09:58:46.513Z,22.00
2022-12-09T10:01:20.053Z,22.00
2022-12-09T10:04:14.048Z,22.00
2022-12-09T10:07:07.984Z,22.00
2022-12-09T10:09:44.345Z,22.00
2022-12-09T10:12:39.106Z,22.00
2022-12-09T10:15:20.598Z,22.00
2022-12-09T10:18:17.508Z,22.00
2022-12-09T10:20:47.047Z,22.00
2022-12-09T10:23:17.244Z,21.90
2022-12-09T10:25:54.842Z,21.90
2022-12-09T10:28:25.372Z,21.90
2022-12-09T10:30:56.512Z,21.90
2022-12-09T10:34:10.038Z,21.90
2022-12-09T10:36:51.946Z,21.90
2022-12-09T10:39:22.792Z,21.90
2022-12-09T10:42:12.063Z,21.90
2022-12-09T10:45:02.302Z,21.90
2022-12-09T10:47:35.135Z,21.90
2022-12-09T10:50:06.155Z,21.90
2022-12-09T10:52:44.401Z,21.90
2022-12-09T10:55:30.645Z,21.90
2022-12-09T10:58:23.839Z,21.90
2022-12-09T11:01:19.413Z,21.90
2022-12-09T11:03:50.763Z,21.90
2022-12-09T11:06:26.402Z,21.90
2022-12-09T11:09:03.496Z,21.90
2022-12-09T11:11:56.042Z,21.90
2022-12-09T11:14:41.421Z,21.80
2022-12-09T11:17:19.461Z,21.80
2022-12-09T11:20:17.642Z,21.80
2022-12-09T11:22:48.210Z,21.90
2022-12-09T11:25:23.167Z,21.80
2022-12-09T11:28:03.672Z,21.80
2022-12-09T11:31:19.924Z,21.90
2022-12-09T11:34:17.221Z,21.80
2022-12-09T11:37:00.477Z,21.80
2022-12-09T11:39:31.972Z,21.90
2022-12-09T11:42:19.976Z,21.80
2022-12-09T11:44:57.749Z,21.90
2022-12-09T12:01:31.383Z,21.90
2022-12-09T12:07:22.631Z,21.90
2022-12-09T12:09:59.998Z,21.90
2022-12-09T12:12:35.462Z,21.80
2022-12-09T12:15:14.297Z,21.80
2022-12-09T12:17:46.874Z,21.90
2022-12-09T12:20:16.343Z,21.90
2022-12-09T12:23:24.765Z,21.80
2022-12-09T12:26:12.546Z,21.80
2022-12-09T12:43:30.536Z,21.80
2022-12-09T12:46:20.633Z,21.70
2022-12-09T12:49:06.018Z,21.70
2022-12-09T12:55:25.758Z,21.70
2022-12-09T12:59:51.908Z,21.70
2022-12-09T13:03:40.268Z,21.70
2022-12-09T13:07:02.541Z,21.70
2022-12-09T13:09:37.639Z,21.70
2022-12-09T13:12:20.013Z,21.70
2022-12-09T13:15:15.673Z,21.70
2022-12-09T13:18:27.192Z,21.70
2022-12-09T13:21:00.875Z,21.70
2022-12-09T13:24:03.094Z,21.70
2022-12-09T13:30:08.289Z,21.70
2022-12-09T13:33:20.760Z,21.70
2022-12-09T13:35:57.141Z,21.60
2022-12-09T13:41:30.399Z,21.60
2022-12-09T13:44:13.525Z,21.70
2022-12-09T13:51:01.255Z,21.70
2022-12-09T13:57:12.196Z,21.70
2022-12-09T13:59:47.885Z,21.60
2022-12-09T14:02:29.162Z,21.60
2022-12-09T14:05:06.576Z,21.60
2022-12-09T14:10:49.216Z,21.60
2022-12-09T14:13:32.590Z,21.60
2022-12-09T14:26:14.414Z,21.60
2022-12-09T14:28:52.656Z,21.60
2022-12-09T14:35:08.189Z,21.60
2022-12-09T14:37:55.321Z,21.60
2022-12-09T14:40:45.726Z,21.60
2022-12-09T14:44:08.743Z,21.60
2022-12-09T14:55:46.707Z,21.60
2022-12-09T14:58:22.078Z,21.60
2022-12-09T15:04:04.351Z,21.50
2022-12-09T15:06:35.762Z,21.60
2022-12-09T15:09:05.359Z,21.60
2022-12-09T15:11:59.250Z,21.50
2022-12-09T15:14:28.873Z,21.60
2022-12-09T15:21:15.475Z,21.60
2022-12-09T15:23:50.908Z,21.50
2022-12-09T15:26:28.549Z,21.50
2022-12-09T15:29:43.829Z,21.50
2022-12-09T15:32:27.024Z,21.50
2022-12-09T15:34:56.484Z,21.50
2022-12-09T15:37:28.396Z,21.50
2022-12-09T15:49:58.671Z,21.50
2022-12-09T15:52:30.714Z,21.50
2022-12-09T15:55:01.122Z,21.50
2022-12-09T15:57:32.141Z,21.50
2022-12-09T16:00:01.364Z,21.50
2022-12-09T16:02:32.890Z,21.50
2022-12-09T16:05:04.287Z,21.50
2022-12-09T16:11:00.244Z,21.50
2022-12-09T16:13:30.371Z,21.50
2022-12-09T16:16:01.257Z,21.50
2022-12-09T16:18:47.345Z,21.40
2022-12-09T16:21:16.957Z,21.50
2022-12-09T16:23:47.952Z,21.40
2022-12-09T16:26:32.727Z,21.40
2022-12-09T16:29:03.790Z,21.40
2022-12-09T16:31:33.430Z,21.50
2022-12-09T16:34:02.373Z,21.40
2022-12-09T16:36:32.916Z,21.40
2022-12-09T16:39:13.649Z,21.40
2022-12-09T16:41:55.377Z,21.40
2022-12-09T16:44:35.601Z,21.40
2022-12-09T16:47:17.231Z,21.40
2022-12-09T16:49:48.437Z,21.40
2022-12-09T16:52:24.132Z,21.40
2022-12-09T16:58:17.426Z,21.30
2022-12-09T17:00:47.850Z,21.40
2022-12-09T17:03:20.881Z,21.40
2022-12-09T17:05:49.887Z,21.40
2022-12-09T17:08:19.306Z,21.40
2022-12-09T17:11:03.950Z,21.40
2022-12-09T17:13:35.703Z,21.30
2022-12-09T17:16:06.497Z,21.30
2022-12-09T17:21:44.013Z,21.30
2022-12-09T17:24:13.287Z,21.30
2022-12-09T17:26:42.566Z,21.30
2022-12-09T17:29:11.711Z,21.30
2022-12-09T17:31:40.663Z,21.30
2022-12-09T17:34:23.126Z,21.30
2022-12-09T17:37:02.984Z,21.30
2022-12-09T17:39:32.618Z,21.30
2022-12-09T17:42:02.090Z,21.30
2022-12-09T17:44:31.216Z,21.30
2022-12-09T17:47:00.055Z,21.20
2022-12-09T17:49:29.673Z,21.30
2022-12-09T17:51:58.874Z,21.30
2022-12-09T17:54:30.490Z,21.30
2022-12-09T17:57:02.352Z,21.30
2022-12-09T18:02:45.266Z,21.20
2022-12-09T18:05:14.402Z,21.30
2022-12-09T18:07:43.629Z,21.20
2022-12-09T18:10:12.865Z,21.20
2022-12-09T18:12:42.116Z,21.20
2022-12-09T18:15:11.352Z,21.20
2022-12-09T18:17:41.046Z,21.20
2022-12-09T18:23:25.862Z,21.20
2022-12-09T18:25:54.982Z,21.20
2022-12-09T18:28:28.207Z,21.20
2022-12-09T18:30:57.777Z,21.20
2022-12-09T18:33:27.055Z,21.20
2022-12-09T18:35:56.627Z,21.20
2022-12-09T18:41:37.467Z,21.20
2022-12-09T18:44:07.286Z,21.20
2022-12-09T18:46:38.444Z,21.20
2022-12-09T18:49:11.788Z,21.20
2022-12-09T18:51:42.985Z,21.20
2022-12-09T18:54:16.605Z,21.20
2022-12-09T19:00:42.089Z,21.10
2022-12-09T19:03:11.718Z,21.20
2022-12-09T19:05:41.683Z,21.20
2022-12-09T19:08:11.083Z,21.10
2022-12-09T19:10:40.493Z,21.20
2022-12-09T19:16:00.143Z,21.20
2022-12-09T19:18:29.708Z,21.10
2022-12-09T19:21:07.145Z,21.10
2022-12-09T19:26:56.812Z,21.10
2022-12-09T19:29:25.900Z,21.10
2022-12-09T19:31:55.211Z,21.10
2022-12-09T19:34:29.480Z,21.10
2022-12-09T19:40:02.160Z,21.10
2022-12-09T19:45:41.123Z,21.10
2022-12-09T19:48:10.848Z,21.10
2022-12-09T19:50:39.662Z,21.10
2022-12-09T19:53:09.211Z,21.10
2022-12-09T19:55:38.422Z,21.10
2022-12-09T19:58:09.763Z,21.10
2022-12-09T20:00:41.847Z,21.10
2022-12-09T20:03:11.709Z,21.00
2022-12-09T20:05:49.253Z,21.10
2022-12-09T20:08:18.759Z,21.10
2022-12-09T20:10:48.309Z,21.00
2022-12-09T20:13:17.488Z,21.10
2022-12-09T20:15:46.544Z,21.00
2022-12-09T20:18:15.514Z,21.10
2022-12-09T20:23:50.943Z,21.10
2022-12-09T20:26:28.716Z,21.10
2022-12-09T20:32:40.416Z,21.00
2022-12-09T20:35:09.765Z,21.00
2022-12-09T20:37:38.723Z,21.00
2022-12-09T20:40:08.784Z,21.00
2022-12-09T20:49:02.353Z,21.00
2022-12-09T20:51:33.239Z,21.00
2022-12-09T20:54:16.931Z,21.00
2022-12-09T20:56:46.803Z,21.00
2022-12-09T20:59:15.637Z,21.00
2022-12-09T21:04:48.639Z,21.00
2022-12-09T21:07:20.172Z,21.00
2022-12-09T21:09:49.223Z,21.00
2022-12-09T21:12:18.429Z,21.00
2022-12-09T21:14:48.232Z,21.00
2022-12-09T21:17:17.199Z,21.00
2022-12-09T21:19:46.701Z,21.00
2022-12-09T21:22:16.047Z,21.00
2022-12-09T21:24:45.703Z,21.00
2022-12-09T21:27:47.363Z,21.00
2022-12-09T21:30:16.654Z,21.00
2022-12-09T21:32:46.194Z,21.00
2022-12-09T21:35:15.668Z,21.00
2022-12-09T21:37:45.057Z,21.00
2022-12-09T21:40:14.412Z,21.00
2022-12-09T21:42:43.184Z,21.00
2022-12-09T21:45:12.652Z,21.00
2022-12-09T21:47:41.444Z,20.90
2022-12-09T21:50:11.042Z,21.00
2022-12-09T21:55:43.896Z,21.00
2022-12-09T21:58:12.875Z,21.00
2022-12-09T22:00:41.697Z,21.00
2022-12-09T22:03:11.234Z,21.00
2022-12-09T22:05:40.874Z,21.00
2022-12-09T22:11:22.776Z,20.90
2022-12-09T22:13:52.270Z,21.00
2022-12-09T22:16:23.330Z,20.90
2022-12-09T22:18:54.536Z,20.90
2022-12-09T22:21:26.000Z,21.00
2022-12-09T22:23:57.625Z,21.00
2022-12-09T22:29:46.574Z,20.90
2022-12-09T22:32:15.738Z,20.90
2022-12-09T22:34:45.107Z,21.00
2022-12-09T22:40:23.696Z,20.90
2022-12-09T22:42:53.146Z,20.90
2022-12-09T22:45:22.529Z,20.90
2022-12-09T22:47:52.439Z,20.90
2022-12-09T22:50:22.929Z,20.90
2022-12-09T22:52:52.460Z,20.90
2022-12-09T22:55:21.405Z,20.90
2022-12-09T22:58:26.203Z,20.90
2022-12-09T23:00:55.399Z,20.90
2022-12-09T23:03:24.381Z,20.90
2022-12-09T23:05:55.843Z,20.90
2022-12-09T23:08:25.096Z,20.90
2022-12-09T23:10:55.756Z,20.90
2022-12-09T23:16:41.039Z,20.90
2022-12-09T23:19:10.850Z,20.90
2022-12-09T23:21:40.668Z,20.90
2022-12-09T23:24:12.647Z,20.90
2022-12-09T23:26:42.749Z,20.90
2022-12-09T23:29:56.132Z,20.90
2022-12-09T23:32:28.279Z,20.90
2022-12-09T23:34:57.696Z,20.90
2022-12-09T23:37:26.537Z,20.80
2022-12-09T23:39:56.087Z,20.80
2022-12-09T23:42:25.437Z,20.90
2022-12-09T23:44:54.728Z,20.90
2022-12-09T23:47:23.672Z,20.90
2022-12-09T23:49:52.458Z,20.80
2022-12-09T23:52:21.700Z,20.80
2022-12-09T23:58:10.038Z,20.80
